sensor_id;sensor_type;location;lat;lon;timestamp;temperature;humidity
27004;DHT22;14546;47.590;19.022;2023-09-19T00:02:19;23.20;65.10
27004;DHT22;14546;47.590;19.022;2023-09-19T00:04:45;23.20;65.10
27004;DHT22;14546;47.590;19.022;2023-09-19T00:07:10;23.10;65.10
27004;DHT22;14546;47.590;19.022;2023-09-19T00:09:36;23.20;65.30
27004;DHT22;14546;47.590;19.022;2023-09-19T00:12:06;23.10;65.30
27004;DHT22;14546;47.590;19.022;2023-09-19T00:14:32;23.10;65.30
27004;DHT22;14546;47.590;19.022;2023-09-19T00:46:31;23.10;65.30
27004;DHT22;14546;47.590;19.022;2023-09-19T00:48:58;23.00;66.50
27004;DHT22;14546;47.590;19.022;2023-09-19T00:51:25;23.00;66.60
27004;DHT22;14546;47.590;19.022;2023-09-19T00:53:53;23.00;66.70
27004;DHT22;14546;47.590;19.022;2023-09-19T00:56:19;22.90;66.70
27004;DHT22;14546;47.590;19.022;2023-09-19T00:58:46;22.90;66.90
27004;DHT22;14546;47.590;19.022;2023-09-19T01:01:13;22.90;67.00
27004;DHT22;14546;47.590;19.022;2023-09-19T01:03:41;23.00;67.10
27004;DHT22;14546;47.590;19.022;2023-09-19T01:06:07;22.90;67.10
27004;DHT22;14546;47.590;19.022;2023-09-19T01:08:34;22.90;67.40
27004;DHT22;14546;47.590;19.022;2023-09-19T01:11:26;23.00;67.80
27004;DHT22;14546;47.590;19.022;2023-09-19T01:14:06;23.00;67.90
27004;DHT22;14546;47.590;19.022;2023-09-19T01:16:45;23.00;67.80
27004;DHT22;14546;47.590;19.022;2023-09-19T01:19:41;23.00;67.80
27004;DHT22;14546;47.590;19.022;2023-09-19T01:22:20;23.00;67.90
27004;DHT22;14546;47.590;19.022;2023-09-19T01:30:26;23.00;68.20
27004;DHT22;14546;47.590;19.022;2023-09-19T01:32:53;23.00;68.50
27004;DHT22;14546;47.590;19.022;2023-09-19T01:35:19;23.00;68.60
27004;DHT22;14546;47.590;19.022;2023-09-19T01:37:45;23.00;68.70
27004;DHT22;14546;47.590;19.022;2023-09-19T01:40:16;23.00;68.60
27004;DHT22;14546;47.590;19.022;2023-09-19T01:42:59;23.00;68.80
27004;DHT22;14546;47.590;19.022;2023-09-19T01:46:02;23.00;68.90
27004;DHT22;14546;47.590;19.022;2023-09-19T01:48:43;23.00;69.00
27004;DHT22;14546;47.590;19.022;2023-09-19T01:51:20;23.00;69.00
27004;DHT22;14546;47.590;19.022;2023-09-19T01:53:55;23.00;69.10
27004;DHT22;14546;47.590;19.022;2023-09-19T01:56:37;23.00;70.00
27004;DHT22;14546;47.590;19.022;2023-09-19T01:59:12;22.90;69.30
27004;DHT22;14546;47.590;19.022;2023-09-19T02:01:39;22.90;69.40
27004;DHT22;14546;47.590;19.022;2023-09-19T02:04:07;22.90;69.50
27004;DHT22;14546;47.590;19.022;2023-09-19T02:06:33;22.80;69.60
27004;DHT22;14546;47.590;19.022;2023-09-19T02:09:02;22.80;69.70
27004;DHT22;14546;47.590;19.022;2023-09-19T02:11:29;22.80;69.70
27004;DHT22;14546;47.590;19.022;2023-09-19T02:13:55;22.70;69.80
27004;DHT22;14546;47.590;19.022;2023-09-19T02:16:21;22.70;69.90
27004;DHT22;14546;47.590;19.022;2023-09-19T02:18:49;22.60;70.00
27004;DHT22;14546;47.590;19.022;2023-09-19T02:21:15;22.60;70.20
27004;DHT22;14546;47.590;19.022;2023-09-19T02:23:42;22.60;70.40
27004;DHT22;14546;47.590;19.022;2023-09-19T02:26:09;22.50;70.50
27004;DHT22;14546;47.590;19.022;2023-09-19T02:28:34;22.50;70.60
27004;DHT22;14546;47.590;19.022;2023-09-19T02:31:01;22.40;70.80
27004;DHT22;14546;47.590;19.022;2023-09-19T02:33:27;22.40;70.90
27004;DHT22;14546;47.590;19.022;2023-09-19T02:35:58;22.40;71.10
27004;DHT22;14546;47.590;19.022;2023-09-19T02:38:27;22.30;71.50
27004;DHT22;14546;47.590;19.022;2023-09-19T02:40:54;22.30;71.60
27004;DHT22;14546;47.590;19.022;2023-09-19T02:43:23;22.30;71.80
27004;DHT22;14546;47.590;19.022;2023-09-19T02:45:50;22.30;71.80
27004;DHT22;14546;47.590;19.022;2023-09-19T02:48:16;22.30;72.00
27004;DHT22;14546;47.590;19.022;2023-09-19T02:50:42;22.20;72.20
27004;DHT22;14546;47.590;19.022;2023-09-19T02:53:08;22.20;72.40
27004;DHT22;14546;47.590;19.022;2023-09-19T02:55:38;22.20;72.60
27004;DHT22;14546;47.590;19.022;2023-09-19T02:58:06;22.20;72.80
27004;DHT22;14546;47.590;19.022;2023-09-19T03:00:33;22.10;73.00
27004;DHT22;14546;47.590;19.022;2023-09-19T03:03:02;22.10;73.30
27004;DHT22;14546;47.590;19.022;2023-09-19T03:05:28;22.00;73.60
27004;DHT22;14546;47.590;19.022;2023-09-19T03:07:56;21.90;73.80
27004;DHT22;14546;47.590;19.022;2023-09-19T03:10:22;21.90;74.00
27004;DHT22;14546;47.590;19.022;2023-09-19T03:12:49;21.80;74.50
27004;DHT22;14546;47.590;19.022;2023-09-19T03:15:15;21.80;75.00
27004;DHT22;14546;47.590;19.022;2023-09-19T03:17:46;21.70;75.40
27004;DHT22;14546;47.590;19.022;2023-09-19T03:20:13;21.70;75.60
27004;DHT22;14546;47.590;19.022;2023-09-19T03:22:43;21.60;75.70
27004;DHT22;14546;47.590;19.022;2023-09-19T03:25:09;21.60;75.80
27004;DHT22;14546;47.590;19.022;2023-09-19T03:27:37;21.50;75.70
27004;DHT22;14546;47.590;19.022;2023-09-19T03:30:04;21.50;75.90
27004;DHT22;14546;47.590;19.022;2023-09-19T03:32:37;21.50;76.00
27004;DHT22;14546;47.590;19.022;2023-09-19T03:35:08;21.40;76.10
27004;DHT22;14546;47.590;19.022;2023-09-19T03:37:40;21.40;76.30
27004;DHT22;14546;47.590;19.022;2023-09-19T03:40:07;21.40;76.60
27004;DHT22;14546;47.590;19.022;2023-09-19T03:42:33;21.40;76.70
27004;DHT22;14546;47.590;19.022;2023-09-19T03:45:01;21.40;76.90
27004;DHT22;14546;47.590;19.022;2023-09-19T03:47:31;21.40;77.00
27004;DHT22;14546;47.590;19.022;2023-09-19T03:49:56;21.30;77.30
27004;DHT22;14546;47.590;19.022;2023-09-19T03:52:22;21.40;77.40
27004;DHT22;14546;47.590;19.022;2023-09-19T03:54:48;21.40;77.50
27004;DHT22;14546;47.590;19.022;2023-09-19T03:57:14;21.40;77.60
27004;DHT22;14546;47.590;19.022;2023-09-19T03:59:42;21.40;77.80
27004;DHT22;14546;47.590;19.022;2023-09-19T04:02:08;21.40;77.80
27004;DHT22;14546;47.590;19.022;2023-09-19T04:04:38;21.30;77.90
27004;DHT22;14546;47.590;19.022;2023-09-19T04:07:04;21.40;78.00
27004;DHT22;14546;47.590;19.022;2023-09-19T04:09:30;21.40;78.10
27004;DHT22;14546;47.590;19.022;2023-09-19T04:11:56;21.40;78.20
27004;DHT22;14546;47.590;19.022;2023-09-19T04:14:21;21.30;78.40
27004;DHT22;14546;47.590;19.022;2023-09-19T04:16:47;21.30;78.40
27004;DHT22;14546;47.590;19.022;2023-09-19T04:19:12;21.30;78.40
27004;DHT22;14546;47.590;19.022;2023-09-19T04:21:40;21.30;78.30
27004;DHT22;14546;47.590;19.022;2023-09-19T04:24:06;21.30;78.20
27004;DHT22;14546;47.590;19.022;2023-09-19T04:26:32;21.30;77.90
27004;DHT22;14546;47.590;19.022;2023-09-19T04:28:58;21.30;77.70
27004;DHT22;14546;47.590;19.022;2023-09-19T04:31:24;21.30;77.60
27004;DHT22;14546;47.590;19.022;2023-09-19T04:33:50;21.30;77.50
27004;DHT22;14546;47.590;19.022;2023-09-19T04:36:15;21.30;77.30
27004;DHT22;14546;47.590;19.022;2023-09-19T04:38:41;21.30;77.10
27004;DHT22;14546;47.590;19.022;2023-09-19T04:41:06;21.30;77.80
27004;DHT22;14546;47.590;19.022;2023-09-19T04:43:32;21.30;77.00
27004;DHT22;14546;47.590;19.022;2023-09-19T04:45:58;21.40;77.00
27004;DHT22;14546;47.590;19.022;2023-09-19T04:48:25;21.40;77.00
27004;DHT22;14546;47.590;19.022;2023-09-19T04:50:51;21.30;76.80
27004;DHT22;14546;47.590;19.022;2023-09-19T04:53:18;21.30;76.70
27004;DHT22;14546;47.590;19.022;2023-09-19T04:55:49;21.30;76.60
27004;DHT22;14546;47.590;19.022;2023-09-19T04:58:15;21.20;76.50
27004;DHT22;14546;47.590;19.022;2023-09-19T05:00:40;21.20;76.50
27004;DHT22;14546;47.590;19.022;2023-09-19T05:03:06;21.10;76.50
27004;DHT22;14546;47.590;19.022;2023-09-19T05:05:34;21.10;76.80
27004;DHT22;14546;47.590;19.022;2023-09-19T05:08:00;21.10;76.90
27004;DHT22;14546;47.590;19.022;2023-09-19T05:10:25;21.00;77.10
27004;DHT22;14546;47.590;19.022;2023-09-19T05:12:55;21.00;77.30
27004;DHT22;14546;47.590;19.022;2023-09-19T05:15:21;20.90;77.60
27004;DHT22;14546;47.590;19.022;2023-09-19T05:17:53;20.70;77.90
27004;DHT22;14546;47.590;19.022;2023-09-19T05:20:21;20.70;78.40
27004;DHT22;14546;47.590;19.022;2023-09-19T08:17:33;20.60;78.70
27004;DHT22;14546;47.590;19.022;2023-09-19T08:19:59;18.00;95.90
27004;DHT22;14546;47.590;19.022;2023-09-19T08:22:25;17.80;95.90
27004;DHT22;14546;47.590;19.022;2023-09-19T08:24:53;17.80;95.90
27004;DHT22;14546;47.590;19.022;2023-09-19T08:27:18;17.80;95.80
27004;DHT22;14546;47.590;19.022;2023-09-19T08:29:45;17.70;95.90
27004;DHT22;14546;47.590;19.022;2023-09-19T08:32:12;17.80;96.10
27004;DHT22;14546;47.590;19.022;2023-09-19T08:34:38;17.80;96.20
27004;DHT22;14546;47.590;19.022;2023-09-19T08:37:06;17.80;96.40
27004;DHT22;14546;47.590;19.022;2023-09-19T08:39:32;17.80;96.50
27004;DHT22;14546;47.590;19.022;2023-09-19T08:42:01;17.80;96.60
27004;DHT22;14546;47.590;19.022;2023-09-19T08:44:30;17.80;96.70
27004;DHT22;14546;47.590;19.022;2023-09-19T08:47:15;17.80;97.00
27004;DHT22;14546;47.590;19.022;2023-09-19T08:50:04;17.80;97.10
27004;DHT22;14546;47.590;19.022;2023-09-19T08:52:37;17.80;97.20
27004;DHT22;14546;47.590;19.022;2023-09-19T08:55:07;17.80;97.20
27004;DHT22;14546;47.590;19.022;2023-09-19T08:57:37;17.80;97.30
27004;DHT22;14546;47.590;19.022;2023-09-19T09:00:08;17.80;97.50
27004;DHT22;14546;47.590;19.022;2023-09-19T09:02:38;17.80;97.60
27004;DHT22;14546;47.590;19.022;2023-09-19T09:05:17;17.90;97.80
27004;DHT22;14546;47.590;19.022;2023-09-19T09:07:49;17.90;98.00
27004;DHT22;14546;47.590;19.022;2023-09-19T09:10:22;18.00;98.10
27004;DHT22;14546;47.590;19.022;2023-09-19T09:12:53;18.00;98.10
27004;DHT22;14546;47.590;19.022;2023-09-19T09:15:22;18.00;98.10
27004;DHT22;14546;47.590;19.022;2023-09-19T09:17:49;18.10;98.30
27004;DHT22;14546;47.590;19.022;2023-09-19T09:20:17;18.10;98.50
27004;DHT22;14546;47.590;19.022;2023-09-19T09:22:55;18.10;98.30
27004;DHT22;14546;47.590;19.022;2023-09-19T09:25:50;18.20;98.40
27004;DHT22;14546;47.590;19.022;2023-09-19T09:28:26;18.20;98.30
27004;DHT22;14546;47.590;19.022;2023-09-19T09:30:52;18.20;98.30
27004;DHT22;14546;47.590;19.022;2023-09-19T09:33:21;18.20;98.50
27004;DHT22;14546;47.590;19.022;2023-09-19T09:35:58;18.20;98.60
27004;DHT22;14546;47.590;19.022;2023-09-19T09:38:30;18.20;98.40
27004;DHT22;14546;47.590;19.022;2023-09-19T10:20:47;18.20;98.90
27004;DHT22;14546;47.590;19.022;2023-09-19T10:23:15;19.00;99.30
27004;DHT22;14546;47.590;19.022;2023-09-19T10:25:48;19.10;99.30
27004;DHT22;14546;47.590;19.022;2023-09-19T16:42:08;19.20;99.40
27004;DHT22;14546;47.590;19.022;2023-09-19T16:44:34;22.90;68.60
27004;DHT22;14546;47.590;19.022;2023-09-19T16:49:30;22.50;68.90
27004;DHT22;14546;47.590;19.022;2023-09-19T16:51:56;22.20;69.90
27004;DHT22;14546;47.590;19.022;2023-09-19T16:59:18;22.10;70.50
27004;DHT22;14546;47.590;19.022;2023-09-19T17:01:45;21.60;72.00
27004;DHT22;14546;47.590;19.022;2023-09-19T17:04:12;21.50;72.40
27004;DHT22;14546;47.590;19.022;2023-09-19T17:06:38;21.30;72.90
27004;DHT22;14546;47.590;19.022;2023-09-19T17:09:05;21.20;73.40
27004;DHT22;14546;47.590;19.022;2023-09-19T17:11:35;21.10;73.70
27004;DHT22;14546;47.590;19.022;2023-09-19T17:14:05;21.10;74.00
27004;DHT22;14546;47.590;19.022;2023-09-19T17:16:35;20.90;74.50
27004;DHT22;14546;47.590;19.022;2023-09-19T17:19:03;20.90;75.00
27004;DHT22;14546;47.590;19.022;2023-09-19T17:21:35;21.00;75.40
27004;DHT22;14546;47.590;19.022;2023-09-19T17:24:04;20.90;75.40
27004;DHT22;14546;47.590;19.022;2023-09-19T17:26:33;20.90;75.60
27004;DHT22;14546;47.590;19.022;2023-09-19T17:29:00;20.80;75.60
27004;DHT22;14546;47.590;19.022;2023-09-19T17:31:28;20.80;76.00
27004;DHT22;14546;47.590;19.022;2023-09-19T17:33:55;20.70;75.80
27004;DHT22;14546;47.590;19.022;2023-09-19T17:36:25;20.60;76.00
27004;DHT22;14546;47.590;19.022;2023-09-19T17:38:54;20.40;76.30
27004;DHT22;14546;47.590;19.022;2023-09-19T17:41:26;20.20;76.80
27004;DHT22;14546;47.590;19.022;2023-09-19T17:43:55;20.10;77.30
27004;DHT22;14546;47.590;19.022;2023-09-19T17:46:23;20.00;77.80
27004;DHT22;14546;47.590;19.022;2023-09-19T17:48:59;19.80;78.20
27004;DHT22;14546;47.590;19.022;2023-09-19T17:51:26;19.70;78.50
27004;DHT22;14546;47.590;19.022;2023-09-19T17:53:56;19.70;78.80
27004;DHT22;14546;47.590;19.022;2023-09-19T17:56:28;19.60;79.20
27004;DHT22;14546;47.590;19.022;2023-09-19T17:58:55;19.50;79.50
27004;DHT22;14546;47.590;19.022;2023-09-19T18:01:25;19.40;79.80
27004;DHT22;14546;47.590;19.022;2023-09-19T18:04:14;19.30;80.20
27004;DHT22;14546;47.590;19.022;2023-09-19T18:06:44;19.40;80.50
27004;DHT22;14546;47.590;19.022;2023-09-19T18:09:12;19.30;80.70
27004;DHT22;14546;47.590;19.022;2023-09-19T18:11:44;19.20;80.90
27004;DHT22;14546;47.590;19.022;2023-09-19T18:14:11;19.20;81.20
27004;DHT22;14546;47.590;19.022;2023-09-19T18:16:41;19.10;81.30
27004;DHT22;14546;47.590;19.022;2023-09-19T18:19:12;19.10;81.60
27004;DHT22;14546;47.590;19.022;2023-09-19T18:21:43;19.00;81.50
27004;DHT22;14546;47.590;19.022;2023-09-19T18:24:12;18.90;81.30
27004;DHT22;14546;47.590;19.022;2023-09-19T18:26:40;18.90;81.90
27004;DHT22;14546;47.590;19.022;2023-09-19T18:29:08;18.80;82.20
27004;DHT22;14546;47.590;19.022;2023-09-19T18:31:36;18.80;82.40
27004;DHT22;14546;47.590;19.022;2023-09-19T18:34:04;18.70;82.70
27004;DHT22;14546;47.590;19.022;2023-09-19T18:36:33;18.70;83.10
27004;DHT22;14546;47.590;19.022;2023-09-19T18:39:01;18.70;83.30
27004;DHT22;14546;47.590;19.022;2023-09-19T18:41:28;18.60;83.40
27004;DHT22;14546;47.590;19.022;2023-09-19T18:43:55;18.60;83.60
27004;DHT22;14546;47.590;19.022;2023-09-19T18:46:25;18.50;83.80
27004;DHT22;14546;47.590;19.022;2023-09-19T18:48:56;18.50;84.10
27004;DHT22;14546;47.590;19.022;2023-09-19T18:51:27;18.40;84.30
27004;DHT22;14546;47.590;19.022;2023-09-19T18:53:54;18.40;84.60
27004;DHT22;14546;47.590;19.022;2023-09-19T18:56:20;18.40;84.80
27004;DHT22;14546;47.590;19.022;2023-09-19T18:58:50;18.40;85.00
27004;DHT22;14546;47.590;19.022;2023-09-19T19:01:16;18.40;85.30
27004;DHT22;14546;47.590;19.022;2023-09-19T19:03:44;18.30;85.30
27004;DHT22;14546;47.590;19.022;2023-09-19T19:06:13;18.30;85.40
27004;DHT22;14546;47.590;19.022;2023-09-19T19:08:47;18.30;85.70
27004;DHT22;14546;47.590;19.022;2023-09-19T19:11:15;18.20;85.80
27004;DHT22;14546;47.590;19.022;2023-09-19T19:13:46;18.20;86.10
27004;DHT22;14546;47.590;19.022;2023-09-19T19:16:15;18.10;86.20
27004;DHT22;14546;47.590;19.022;2023-09-19T19:18:45;18.10;86.40
27004;DHT22;14546;47.590;19.022;2023-09-19T19:21:12;18.10;86.60
27004;DHT22;14546;47.590;19.022;2023-09-19T19:23:48;18.10;86.80
27004;DHT22;14546;47.590;19.022;2023-09-19T19:26:15;18.10;87.00
27004;DHT22;14546;47.590;19.022;2023-09-19T19:28:42;18.00;87.10
27004;DHT22;14546;47.590;19.022;2023-09-19T19:31:10;18.10;87.30
27004;DHT22;14546;47.590;19.022;2023-09-19T19:33:43;18.00;87.40
27004;DHT22;14546;47.590;19.022;2023-09-19T19:36:14;18.00;87.60
27004;DHT22;14546;47.590;19.022;2023-09-19T19:38:41;18.00;87.70
27004;DHT22;14546;47.590;19.022;2023-09-19T19:41:36;18.00;87.80
27004;DHT22;14546;47.590;19.022;2023-09-19T19:44:04;18.00;88.70
27004;DHT22;14546;47.590;19.022;2023-09-19T19:46:32;17.90;88.10
27004;DHT22;14546;47.590;19.022;2023-09-19T19:48:59;17.90;89.00
27004;DHT22;14546;47.590;19.022;2023-09-19T19:51:26;17.90;88.40
27004;DHT22;14546;47.590;19.022;2023-09-19T19:53:53;17.90;88.50
27004;DHT22;14546;47.590;19.022;2023-09-19T19:56:20;17.90;88.70
27004;DHT22;14546;47.590;19.022;2023-09-19T19:58:48;17.80;88.70
27004;DHT22;14546;47.590;19.022;2023-09-19T20:01:15;17.80;88.70
27004;DHT22;14546;47.590;19.022;2023-09-19T20:03:41;17.80;88.90
27004;DHT22;14546;47.590;19.022;2023-09-19T20:06:12;17.80;88.90
27004;DHT22;14546;47.590;19.022;2023-09-19T20:08:39;17.80;89.00
27004;DHT22;14546;47.590;19.022;2023-09-19T20:11:06;17.70;88.80
27004;DHT22;14546;47.590;19.022;2023-09-19T20:13:40;17.70;88.90
27004;DHT22;14546;47.590;19.022;2023-09-19T20:16:06;17.70;89.10
27004;DHT22;14546;47.590;19.022;2023-09-19T20:18:33;17.60;89.00
27004;DHT22;14546;47.590;19.022;2023-09-19T20:21:05;17.60;89.00
27004;DHT22;14546;47.590;19.022;2023-09-19T20:23:37;17.60;89.10
27004;DHT22;14546;47.590;19.022;2023-09-19T20:26:06;17.50;89.20
27004;DHT22;14546;47.590;19.022;2023-09-19T20:28:37;17.50;89.30
27004;DHT22;14546;47.590;19.022;2023-09-19T20:31:07;17.40;89.30
27004;DHT22;14546;47.590;19.022;2023-09-19T20:33:35;17.40;89.40
27004;DHT22;14546;47.590;19.022;2023-09-19T20:36:09;17.40;89.50
27004;DHT22;14546;47.590;19.022;2023-09-19T20:38:37;17.40;89.70
27004;DHT22;14546;47.590;19.022;2023-09-19T20:41:06;17.30;89.70
27004;DHT22;14546;47.590;19.022;2023-09-19T20:43:32;17.30;89.80
27004;DHT22;14546;47.590;19.022;2023-09-19T20:46:05;17.20;89.80
27004;DHT22;14546;47.590;19.022;2023-09-19T20:48:32;17.20;90.00
27004;DHT22;14546;47.590;19.022;2023-09-19T20:51:09;17.20;90.00
27004;DHT22;14546;47.590;19.022;2023-09-19T20:53:39;17.10;90.00
27004;DHT22;14546;47.590;19.022;2023-09-19T20:56:09;17.10;90.10
27004;DHT22;14546;47.590;19.022;2023-09-19T20:58:37;17.10;90.20
27004;DHT22;14546;47.590;19.022;2023-09-19T21:01:06;17.10;90.30
27004;DHT22;14546;47.590;19.022;2023-09-19T21:03:36;17.10;90.30
27004;DHT22;14546;47.590;19.022;2023-09-19T21:06:06;17.10;90.30
27004;DHT22;14546;47.590;19.022;2023-09-19T21:08:34;17.10;90.40
27004;DHT22;14546;47.590;19.022;2023-09-19T21:13:36;17.00;90.50
27004;DHT22;14546;47.590;19.022;2023-09-19T21:16:02;17.00;90.40
27004;DHT22;14546;47.590;19.022;2023-09-19T21:18:28;17.00;90.50
27004;DHT22;14546;47.590;19.022;2023-09-19T21:20:54;17.00;90.50
27004;DHT22;14546;47.590;19.022;2023-09-19T21:23:20;17.00;90.60
27004;DHT22;14546;47.590;19.022;2023-09-19T21:25:55;17.00;90.60
27004;DHT22;14546;47.590;19.022;2023-09-19T21:28:21;16.90;90.70
27004;DHT22;14546;47.590;19.022;2023-09-19T21:30:59;16.90;90.70
27004;DHT22;14546;47.590;19.022;2023-09-19T21:33:26;16.90;90.80
27004;DHT22;14546;47.590;19.022;2023-09-19T21:35:52;16.90;90.80
27004;DHT22;14546;47.590;19.022;2023-09-19T21:38:18;16.90;90.90
27004;DHT22;14546;47.590;19.022;2023-09-19T21:40:44;16.90;90.90
27004;DHT22;14546;47.590;19.022;2023-09-19T21:43:10;16.90;90.90
27004;DHT22;14546;47.590;19.022;2023-09-19T21:45:36;16.90;91.00
27004;DHT22;14546;47.590;19.022;2023-09-19T21:48:02;16.90;91.00
27004;DHT22;14546;47.590;19.022;2023-09-19T21:50:28;16.90;91.00
27004;DHT22;14546;47.590;19.022;2023-09-19T21:52:56;16.80;90.90
27004;DHT22;14546;47.590;19.022;2023-09-19T21:55:27;16.80;91.00
27004;DHT22;14546;47.590;19.022;2023-09-19T21:57:53;16.80;91.00
27004;DHT22;14546;47.590;19.022;2023-09-19T22:00:20;16.80;91.00
27004;DHT22;14546;47.590;19.022;2023-09-19T22:03:06;16.70;91.10
27004;DHT22;14546;47.590;19.022;2023-09-19T22:05:34;16.70;91.10
